Time;durP1;ratioP1;P1;durP2;ratioP2;P2;SDS_P1;SDS_P2;PMS_P1;PMS_P2;Temp;Humidity;BMP_temperature;BMP_pressure;BME280_temperature;BME280_humidity;BME280_pressure;Samples;Min_cycle;Max_cycle;Signal;HPM_P1;HPM_P2
2021/03/13 00:02:13;;;;;;;;;;;;;;;9.36;63.72;100434.06;4951518;28;19919;-83
2021/03/13 00:04:57;;;;;;;;;;;;;;;9.44;63.87;100431.41;4948781;28;19914;-83
2021/03/13 00:07:41;;;;;;;;;;;;;;;9.45;63.62;100441.13;4948031;28;19915;-82
2021/03/13 00:10:26;;;;;;;;;;;;;;;9.89;61.70;100431.19;4953345;28;19914;-82
2021/03/13 00:13:11;;;;;;;;;;;;;;;10.01;61.09;100427.84;4943643;28;19914;-83
2021/03/13 00:15:56;;;;;;;;;;;;;;;10.02;60.59;100427.53;4946070;28;19914;-82
2021/03/13 00:18:43;;;;;;;;;;;;;;;9.87;61.07;100433.41;4954788;28;19914;-83
2021/03/13 00:21:28;;;;;;;;;;;;;;;9.70;62.67;100436.88;4946054;28;19914;-82
2021/03/13 00:24:12;;;;;;;;;;;;;;;9.69;63.08;100445.38;4930053;29;19919;-82
2021/03/13 00:26:56;;;;;;;;;;;;;;;9.73;62.65;100443.63;4939962;28;19918;-81
2021/03/13 00:29:41;;;;;;;;;;;;;;;9.92;61.92;100446.84;4942563;28;19914;-82
2021/03/13 00:32:28;;;;;;;;;;;;;;;9.88;61.91;100438.53;4947088;28;19914;-82
2021/03/13 00:35:13;;;;;;;;;;;;;;;9.83;61.45;100437.88;4942237;29;19918;-82
2021/03/13 00:37:59;;;;;;;;;;;;;;;10.03;61.06;100441.91;4950304;28;19914;-82
2021/03/13 00:40:45;;;;;;;;;;;;;;;9.99;60.67;100438.25;4938178;28;20389;-83
2021/03/13 00:43:30;;;;;;;;;;;;;;;9.76;61.54;100451.91;4939098;29;20337;-83
2021/03/13 00:46:15;;;;;;;;;;;;;;;9.64;61.86;100448.22;4946276;28;19915;-83
2021/03/13 00:49:00;;;;;;;;;;;;;;;9.64;61.92;100445.53;4941060;29;19915;-80
2021/03/13 00:51:44;;;;;;;;;;;;;;;9.40;62.87;100449.41;4943359;28;19922;-80
2021/03/13 00:54:29;;;;;;;;;;;;;;;9.20;63.24;100457.31;4954163;28;19914;-80
2021/03/13 00:57:14;;;;;;;;;;;;;;;9.29;63.85;100450.84;4933764;29;19915;-80
2021/03/13 00:59:58;;;;;;;;;;;;;;;9.09;65.36;100448.66;4940749;29;19914;-81
2021/03/13 01:02:44;;;;;;;;;;;;;;;9.18;65.10;100448.69;4937706;29;19919;-81
2021/03/13 01:05:29;;;;;;;;;;;;;;;8.58;67.84;100455.34;4937644;29;19915;-80
2021/03/13 01:08:15;;;;;;;;;;;;;;;9.13;64.81;100451.53;4947159;29;19914;-80
2021/03/13 01:11:00;;;;;;;;;;;;;;;9.45;62.69;100451.19;4954591;28;19915;-80
2021/03/13 01:13:50;;;;;;;;;;;;;;;9.16;62.96;100451.72;4948034;28;19915;-81
2021/03/13 01:16:37;;;;;;;;;;;;;;;8.72;65.22;100452.59;4932054;29;19914;-81
2021/03/13 01:19:22;;;;;;;;;;;;;;;8.90;65.47;100442.63;4947227;29;19915;-82
2021/03/13 01:22:11;;;;;;;;;;;;;;;8.67;69.49;100441.06;4943273;29;19922;-82
2021/03/13 01:24:56;;;;;;;;;;;;;;;8.75;69.51;100434.88;4954212;28;19915;-82
2021/03/13 01:27:41;;;;;;;;;;;;;;;8.72;69.68;100430.09;4941457;29;19914;-82
2021/03/13 01:30:26;;;;;;;;;;;;;;;8.73;69.67;100445.25;4949569;28;19914;-82
2021/03/13 01:33:11;;;;;;;;;;;;;;;8.62;69.50;100452.84;4954496;28;19918;-82
2021/03/13 01:35:57;;;;;;;;;;;;;;;8.63;69.21;100440.09;4952615;28;19915;-81
2021/03/13 01:38:43;;;;;;;;;;;;;;;8.45;69.81;100447.28;4938461;29;19919;-82
2021/03/13 01:41:29;;;;;;;;;;;;;;;8.38;69.97;100442.28;4952228;28;19923;-82
2021/03/13 01:44:15;;;;;;;;;;;;;;;8.27;69.76;100445.53;4939591;29;19915;-82
2021/03/13 01:47:03;;;;;;;;;;;;;;;8.11;70.70;100445.88;4935849;29;19922;-82
2021/03/13 01:49:49;;;;;;;;;;;;;;;8.14;70.66;100447.16;4948467;28;19914;-81
2021/03/13 01:52:34;;;;;;;;;;;;;;;8.15;70.41;100441.44;4943276;29;20385;-81
2021/03/13 01:55:20;;;;;;;;;;;;;;;8.19;70.45;100441.63;4938787;29;19915;-82
2021/03/13 01:58:09;;;;;;;;;;;;;;;8.24;70.50;100441.50;4933949;29;19914;-83
2021/03/13 02:01:05;;;;;;;;;;;;;;;8.32;70.74;100437.31;4937371;29;19914;-82
2021/03/13 02:03:50;;;;;;;;;;;;;;;8.44;70.19;100445.69;4937403;29;19918;-82
2021/03/13 02:06:35;;;;;;;;;;;;;;;8.57;68.34;100445.63;4951269;28;20301;-82
2021/03/13 02:09:29;;;;;;;;;;;;;;;8.48;68.73;100446.69;4939115;29;19914;-82
2021/03/13 02:12:34;;;;;;;;;;;;;;;8.72;68.29;100451.78;4937908;29;19914;-82
2021/03/13 02:15:54;;;;;;;;;;;;;;;8.62;68.24;100441.19;4943042;28;19918;-82
2021/03/13 02:18:45;;;;;;;;;;;;;;;8.61;67.12;100445.00;4887332;29;19915;-82
2021/03/13 02:21:38;;;;;;;;;;;;;;;8.56;66.46;100444.03;4947729;28;19915;-82
2021/03/13 02:24:27;;;;;;;;;;;;;;;8.58;66.25;100441.78;4940573;28;19918;-82
2021/03/13 02:27:27;;;;;;;;;;;;;;;8.64;65.83;100439.75;4937918;29;19914;-82
2021/03/13 02:30:32;;;;;;;;;;;;;;;8.50;66.25;100441.75;4934429;29;19915;-81
2021/03/13 02:33:32;;;;;;;;;;;;;;;8.41;66.31;100435.47;4928275;29;19915;-81
2021/03/13 02:36:25;;;;;;;;;;;;;;;8.25;66.83;100429.56;4935648;28;20389;-82
2021/03/13 02:39:19;;;;;;;;;;;;;;;8.24;66.45;100427.97;4940954;28;19915;-82
2021/03/13 02:42:13;;;;;;;;;;;;;;;8.32;65.82;100429.19;4917702;29;19922;-82
2021/03/13 02:44:59;;;;;;;;;;;;;;;8.35;65.03;100428.56;4932723;29;19914;-81
2021/03/13 02:47:48;;;;;;;;;;;;;;;8.44;64.86;100424.81;4924384;29;19915;-81
2021/03/13 02:50:34;;;;;;;;;;;;;;;8.48;65.30;100420.34;4909751;29;19915;-82
2021/03/13 02:53:24;;;;;;;;;;;;;;;8.38;65.17;100426.03;4920111;29;19915;-82
2021/03/13 02:56:14;;;;;;;;;;;;;;;8.35;66.21;100423.94;4928529;29;20306;-82
2021/03/13 02:58:59;;;;;;;;;;;;;;;8.29;65.84;100427.84;4941984;29;19919;-82
2021/03/13 03:01:48;;;;;;;;;;;;;;;8.11;67.01;100426.09;4922207;29;20286;-83
2021/03/13 03:04:35;;;;;;;;;;;;;;;8.25;67.37;100429.56;4919070;29;19938;-82
2021/03/13 03:07:24;;;;;;;;;;;;;;;8.61;65.91;100434.16;4922523;29;19918;-82
2021/03/13 03:10:10;;;;;;;;;;;;;;;8.95;64.86;100437.88;4926528;29;19916;-81
2021/03/13 03:12:56;;;;;;;;;;;;;;;8.92;63.25;100440.44;4936957;29;19915;-82
2021/03/13 03:15:42;;;;;;;;;;;;;;;8.58;63.76;100441.78;4927559;29;19919;-82
2021/03/13 03:18:27;;;;;;;;;;;;;;;8.91;62.30;100428.78;4928575;29;20294;-82
2021/03/13 03:21:15;;;;;;;;;;;;;;;8.92;62.58;100435.00;4927784;29;19918;-82
2021/03/13 03:23:59;;;;;;;;;;;;;;;8.92;62.49;100435.81;4923095;29;19919;-84
2021/03/13 03:26:45;;;;;;;;;;;;;;;8.93;61.99;100442.84;4955961;28;19918;-84
2021/03/13 03:29:31;;;;;;;;;;;;;;;8.72;61.88;100449.88;4924292;29;19915;-83
2021/03/13 03:32:18;;;;;;;;;;;;;;;8.69;62.02;100452.38;4954352;28;19914;-82
2021/03/13 03:35:04;;;;;;;;;;;;;;;8.72;61.29;100451.78;4928863;29;20385;-83
2021/03/13 03:37:51;;;;;;;;;;;;;;;8.79;61.13;100457.56;4955674;28;20404;-84
2021/03/13 03:40:36;;;;;;;;;;;;;;;8.83;61.25;100453.13;4936471;29;20300;-83
2021/03/13 03:43:42;;;;;;;;;;;;;;;8.88;60.96;100453.00;4938884;28;19919;-82
2021/03/13 03:46:33;;;;;;;;;;;;;;;8.73;60.74;100446.06;4930006;29;19915;-82
2021/03/13 03:49:19;;;;;;;;;;;;;;;8.58;60.96;100452.63;4953353;28;19915;-81
2021/03/13 03:52:15;;;;;;;;;;;;;;;8.40;61.91;100453.63;4927071;29;19915;-83
2021/03/13 03:55:01;;;;;;;;;;;;;;;8.08;64.26;100457.28;4955356;28;19914;-82
2021/03/13 03:57:46;;;;;;;;;;;;;;;7.85;65.60;100455.66;4942421;29;19915;-82
2021/03/13 04:00:31;;;;;;;;;;;;;;;7.62;66.59;100451.25;4938547;29;19914;-82
2021/03/13 04:03:17;;;;;;;;;;;;;;;7.49;67.36;100469.09;4935625;29;19918;-82
2021/03/13 04:06:02;;;;;;;;;;;;;;;7.68;66.96;100455.47;4940323;29;20369;-83
2021/03/13 04:08:49;;;;;;;;;;;;;;;7.68;67.21;100463.56;4943551;29;19915;-83
2021/03/13 04:11:36;;;;;;;;;;;;;;;7.60;67.52;100464.28;4934246;29;19918;-83
2021/03/13 04:14:21;;;;;;;;;;;;;;;7.69;67.02;100463.28;4946249;29;19915;-83
2021/03/13 04:17:05;;;;;;;;;;;;;;;8.11;64.63;100470.25;4943693;29;19922;-83
2021/03/13 04:19:51;;;;;;;;;;;;;;;8.08;64.64;100480.88;4941087;29;19918;-83
2021/03/13 04:22:36;;;;;;;;;;;;;;;8.30;63.45;100488.28;4944142;29;19919;-83
2021/03/13 04:25:22;;;;;;;;;;;;;;;8.32;63.23;100486.06;4943114;29;19914;-83
2021/03/13 04:28:06;;;;;;;;;;;;;;;8.15;63.70;100483.97;4938902;29;20386;-83
2021/03/13 04:30:51;;;;;;;;;;;;;;;8.31;63.02;100490.69;4943297;29;20294;-83
2021/03/13 04:33:36;;;;;;;;;;;;;;;8.41;63.09;100500.50;4940144;29;19915;-83
2021/03/13 04:36:21;;;;;;;;;;;;;;;8.34;62.54;100503.59;4944310;29;19915;-83
2021/03/13 04:39:06;;;;;;;;;;;;;;;8.52;62.28;100501.88;4925109;29;20350;-83
2021/03/13 04:41:52;;;;;;;;;;;;;;;8.47;62.09;100491.94;4924793;29;19915;-83
2021/03/13 04:44:37;;;;;;;;;;;;;;;8.52;61.58;100497.25;4920720;29;20310;-84
2021/03/13 04:47:21;;;;;;;;;;;;;;;8.35;60.63;100499.78;4926170;29;19922;-83
2021/03/13 04:50:08;;;;;;;;;;;;;;;8.29;61.72;100509.09;4933408;29;19915;-82
2021/03/13 04:52:53;;;;;;;;;;;;;;;8.38;61.95;100504.59;4941066;29;19914;-83
2021/03/13 04:55:37;;;;;;;;;;;;;;;8.46;61.39;100509.31;4943872;29;20414;-81
2021/03/13 04:58:21;;;;;;;;;;;;;;;8.57;60.35;100509.88;4943064;29;19914;-81
2021/03/13 05:01:06;;;;;;;;;;;;;;;8.32;60.79;100516.69;4938624;29;20294;-82
2021/03/13 05:03:51;;;;;;;;;;;;;;;8.39;59.92;100517.03;4936894;29;19919;-82
2021/03/13 05:06:35;;;;;;;;;;;;;;;8.47;59.89;100521.75;4941989;29;19915;-82
2021/03/13 05:09:20;;;;;;;;;;;;;;;8.11;60.98;100518.19;4943234;29;19915;-82
2021/03/13 05:12:05;;;;;;;;;;;;;;;8.28;60.35;100512.91;4940829;29;19915;-83
2021/03/13 05:14:50;;;;;;;;;;;;;;;7.85;60.00;100511.69;4942701;29;19910;-82
2021/03/13 05:17:34;;;;;;;;;;;;;;;7.78;60.29;100520.22;4942346;29;19918;-82
2021/03/13 05:20:19;;;;;;;;;;;;;;;7.45;62.37;100518.69;4942572;29;19914;-82
2021/03/13 05:23:04;;;;;;;;;;;;;;;7.73;61.66;100517.59;4939944;29;19922;-82
2021/03/13 05:25:49;;;;;;;;;;;;;;;7.91;61.51;100522.13;4941467;29;19914;-82
2021/03/13 05:28:33;;;;;;;;;;;;;;;7.84;61.55;100526.31;4938524;29;19915;-83
2021/03/13 05:31:19;;;;;;;;;;;;;;;7.53;62.42;100532.31;4942330;29;20373;-82
2021/03/13 05:34:04;;;;;;;;;;;;;;;7.30;63.15;100530.59;4916980;29;19915;-82
2021/03/13 05:36:49;;;;;;;;;;;;;;;7.73;61.52;100539.25;4923187;29;19915;-83
2021/03/13 05:39:33;;;;;;;;;;;;;;;7.18;63.98;100550.00;4926027;29;20294;-82
2021/03/13 05:42:19;;;;;;;;;;;;;;;7.34;64.31;100539.72;4944000;29;19914;-83
2021/03/13 05:45:05;;;;;;;;;;;;;;;7.36;63.54;100550.25;4943338;28;19919;-82
2021/03/13 05:47:50;;;;;;;;;;;;;;;7.33;62.91;100543.50;4945744;29;19914;-82
2021/03/13 05:50:35;;;;;;;;;;;;;;;7.25;63.08;100546.91;4945474;29;19926;-82
2021/03/13 05:53:19;;;;;;;;;;;;;;;7.41;62.78;100544.75;4926544;29;19915;-82
2021/03/13 05:56:05;;;;;;;;;;;;;;;7.05;63.43;100556.19;4938763;29;19919;-83
2021/03/13 05:58:49;;;;;;;;;;;;;;;6.90;63.97;100550.22;4942429;29;19914;-82
2021/03/13 06:01:34;;;;;;;;;;;;;;;7.19;63.80;100550.81;4944172;29;20377;-82
2021/03/13 06:04:19;;;;;;;;;;;;;;;7.03;63.86;100566.47;4944202;29;19919;-82
2021/03/13 06:07:05;;;;;;;;;;;;;;;7.15;63.80;100571.44;4936081;29;20304;-82
2021/03/13 06:09:53;;;;;;;;;;;;;;;7.15;62.65;100572.22;4943304;29;19915;-82
2021/03/13 06:12:38;;;;;;;;;;;;;;;7.43;62.49;100573.09;4937848;29;20313;-82
2021/03/13 06:15:23;;;;;;;;;;;;;;;7.49;63.06;100574.63;4942256;29;19922;-83
2021/03/13 06:18:07;;;;;;;;;;;;;;;7.47;63.71;100574.09;4954669;28;19915;-83
2021/03/13 06:20:52;;;;;;;;;;;;;;;7.24;63.18;100575.84;4946754;28;19915;-83
2021/03/13 06:23:36;;;;;;;;;;;;;;;7.27;62.89;100579.84;4939781;29;20385;-82
2021/03/13 06:26:48;;;;;;;;;;;;;;;7.22;63.92;100585.34;4944603;29;19915;-83
2021/03/13 06:29:33;;;;;;;;;;;;;;;7.57;62.85;100597.47;4943205;28;19915;-82
2021/03/13 06:32:17;;;;;;;;;;;;;;;7.03;64.85;100595.41;4942916;29;19923;-82
2021/03/13 06:35:22;;;;;;;;;;;;;;;7.02;64.55;100599.19;4939004;29;19914;-83
2021/03/13 06:38:13;;;;;;;;;;;;;;;7.38;63.67;100597.53;4944281;29;20309;-83
2021/03/13 06:41:09;;;;;;;;;;;;;;;7.65;63.13;100600.31;4944852;29;19915;-84
2021/03/13 06:43:57;;;;;;;;;;;;;;;7.66;63.00;100604.63;4940537;29;19919;-84
2021/03/13 06:46:41;;;;;;;;;;;;;;;7.74;62.74;100616.66;4944423;29;19914;-83
2021/03/13 06:49:26;;;;;;;;;;;;;;;8.14;62.62;100610.44;4939460;29;19914;-81
2021/03/13 06:52:18;;;;;;;;;;;;;;;8.19;62.34;100617.66;4936580;29;19914;-83
2021/03/13 06:55:04;;;;;;;;;;;;;;;8.34;61.46;100622.00;4945617;28;20386;-83
2021/03/13 06:57:51;;;;;;;;;;;;;;;8.34;61.82;100617.38;4938221;29;20390;-83
2021/03/13 07:00:36;;;;;;;;;;;;;;;8.42;62.21;100629.44;4937184;29;20293;-84
2021/03/13 07:03:21;;;;;;;;;;;;;;;8.28;61.88;100625.91;4923372;29;20382;-82
2021/03/13 07:06:15;;;;;;;;;;;;;;;8.38;62.05;100623.03;4931947;29;19915;-83
2021/03/13 07:08:59;;;;;;;;;;;;;;;8.33;62.70;100634.75;4939604;29;19915;-84
2021/03/13 07:11:44;;;;;;;;;;;;;;;8.56;61.69;100638.34;4941262;28;20290;-83
2021/03/13 07:14:28;;;;;;;;;;;;;;;8.70;61.85;100636.41;4942567;28;19914;-83
2021/03/13 07:17:17;;;;;;;;;;;;;;;8.82;61.50;100636.69;4948454;29;20378;-83
2021/03/13 07:20:01;;;;;;;;;;;;;;;8.88;61.72;100640.09;4928801;29;20289;-82
2021/03/13 07:22:51;;;;;;;;;;;;;;;9.37;68.21;100645.44;4937194;28;19923;-82
2021/03/13 07:25:36;;;;;;;;;;;;;;;10.90;70.05;100650.25;4947548;29;19915;-83
2021/03/13 07:28:21;;;;;;;;;;;;;;;11.48;67.31;100652.44;4945486;29;20290;-84
2021/03/13 07:31:11;;;;;;;;;;;;;;;11.80;65.37;100653.88;4943537;29;19915;-81
2021/03/13 07:33:59;;;;;;;;;;;;;;;11.98;63.14;100656.25;4938864;29;19918;-82
2021/03/13 07:36:45;;;;;;;;;;;;;;;12.07;60.77;100655.41;4943617;29;19915;-82
2021/03/13 07:39:37;;;;;;;;;;;;;;;12.12;59.15;100660.66;4941926;29;19914;-81
2021/03/13 07:42:21;;;;;;;;;;;;;;;12.16;57.90;100664.34;4933499;29;19915;-80
2021/03/13 07:45:07;;;;;;;;;;;;;;;12.18;57.19;100664.81;4962031;28;19919;-81
2021/03/13 07:47:52;;;;;;;;;;;;;;;12.19;56.78;100669.16;4959641;28;19914;-81
2021/03/13 07:50:39;;;;;;;;;;;;;;;12.20;56.21;100670.72;4958468;28;19914;-82
2021/03/13 07:53:24;;;;;;;;;;;;;;;12.20;55.81;100679.72;4958718;28;19914;-82
2021/03/13 07:56:15;;;;;;;;;;;;;;;12.20;55.36;100676.97;4960241;28;19914;-81
2021/03/13 07:58:59;;;;;;;;;;;;;;;12.19;54.82;100678.09;4952983;28;20381;-82
2021/03/13 08:01:51;;;;;;;;;;;;;;;12.22;54.45;100676.66;4940610;29;19914;-82
2021/03/13 08:04:43;;;;;;;;;;;;;;;12.26;54.69;100674.88;4939502;29;19918;-81
2021/03/13 08:07:28;;;;;;;;;;;;;;;12.29;54.58;100685.91;4937552;29;19914;-82
2021/03/13 08:10:34;;;;;;;;;;;;;;;12.35;54.93;100686.53;4941265;29;19914;-83
2021/03/13 08:13:27;;;;;;;;;;;;;;;12.40;54.69;100700.00;4938031;29;20370;-81
2021/03/13 08:16:13;;;;;;;;;;;;;;;12.41;54.27;100696.16;4938357;28;19919;-83
2021/03/13 08:18:58;;;;;;;;;;;;;;;12.00;53.24;100694.03;4939886;29;20389;-79
2021/03/13 08:21:43;;;;;;;;;;;;;;;9.87;62.53;100700.38;4938382;29;20297;-80
2021/03/13 08:24:58;;;;;;;;;;;;;;;9.48;64.34;100705.72;4942109;29;19923;-80
2021/03/13 08:27:43;;;;;;;;;;;;;;;9.40;61.18;100707.22;4932163;29;19914;-80
2021/03/13 08:30:29;;;;;;;;;;;;;;;9.64;60.47;100704.22;4936300;29;19915;-81
2021/03/13 08:33:25;;;;;;;;;;;;;;;9.57;60.76;100709.28;4938408;29;19914;-79
2021/03/13 08:36:17;;;;;;;;;;;;;;;9.56;61.54;100704.94;4936902;29;19914;-79
2021/03/13 08:39:11;;;;;;;;;;;;;;;10.16;60.56;100715.41;4940997;29;19914;-79
2021/03/13 08:41:56;;;;;;;;;;;;;;;10.35;60.15;100713.28;4938530;29;19919;-79
2021/03/13 08:44:40;;;;;;;;;;;;;;;10.39;60.45;100710.72;4936581;29;19927;-79
2021/03/13 08:47:39;;;;;;;;;;;;;;;11.18;58.31;100707.88;4940595;29;20381;-79
2021/03/13 08:50:42;;;;;;;;;;;;;;;11.74;55.73;100693.31;4938227;29;19915;-79
2021/03/13 08:53:33;;;;;;;;;;;;;;;11.14;56.96;100694.09;4935178;29;19919;-79
2021/03/13 08:56:39;;;;;;;;;;;;;;;11.51;56.24;100693.47;4951296;29;19915;-79
2021/03/13 08:59:24;;;;;;;;;;;;;;;11.91;55.75;100690.56;4934892;29;19914;-78
2021/03/13 09:02:17;;;;;;;;;;;;;;;12.13;55.19;100686.81;4939426;29;19919;-78
2021/03/13 09:05:06;;;;;;;;;;;;;;;11.61;55.88;100692.34;4950376;29;19918;-77
2021/03/13 09:07:55;;;;;;;;;;;;;;;11.83;55.53;100683.22;4935815;29;19915;-78
2021/03/13 09:10:40;;;;;;;;;;;;;;;11.82;55.61;100681.59;4941618;29;20293;-78
2021/03/13 09:13:24;;;;;;;;;;;;;;;11.37;56.38;100686.59;4937870;29;19915;-78
2021/03/13 09:16:16;;;;;;;;;;;;;;;11.54;55.51;100673.75;4939953;29;20385;-82
2021/03/13 09:19:01;;;;;;;;;;;;;;;12.08;55.63;100676.09;4943103;29;19915;-82
2021/03/13 09:21:47;;;;;;;;;;;;;;;12.27;54.28;100676.47;4945673;29;19926;-83
2021/03/13 09:24:32;;;;;;;;;;;;;;;12.14;55.29;100672.06;4940160;29;19918;-82
2021/03/13 09:27:22;;;;;;;;;;;;;;;12.58;54.94;100678.91;4944362;29;19915;-82
2021/03/13 09:30:06;;;;;;;;;;;;;;;12.46;55.18;100665.97;4945520;29;19919;-82
2021/03/13 09:32:52;;;;;;;;;;;;;;;12.06;56.38;100668.22;4939674;29;19915;-82
2021/03/13 09:35:36;;;;;;;;;;;;;;;12.14;56.75;100666.59;4946149;29;19915;-83
2021/03/13 09:38:21;;;;;;;;;;;;;;;12.22;56.83;100671.22;4933074;29;19915;-82
2021/03/13 09:41:14;;;;;;;;;;;;;;;12.35;56.53;100664.72;4941542;29;20306;-84
2021/03/13 09:43:59;;;;;;;;;;;;;;;12.75;55.52;100656.97;4953812;29;19918;-85
2021/03/13 09:46:44;;;;;;;;;;;;;;;12.96;54.48;100651.53;4955355;29;19914;-89
2021/03/13 09:49:29;;;;;;;;;;;;;;;13.24;54.37;100644.44;4941964;29;19915;-80
2021/03/13 09:52:14;;;;;;;;;;;;;;;13.40;53.38;100648.16;4944878;29;19914;-82
2021/03/13 09:55:12;;;;;;;;;;;;;;;13.27;54.34;100646.47;4943844;29;19915;-80
2021/03/13 09:57:58;;;;;;;;;;;;;;;13.32;54.10;100635.34;4942310;29;19914;-82
2021/03/13 10:00:43;;;;;;;;;;;;;;;13.28;54.10;100640.69;4931224;29;19915;-80
2021/03/13 10:03:27;;;;;;;;;;;;;;;13.48;53.45;100630.88;4941996;29;19919;-81
2021/03/13 10:06:12;;;;;;;;;;;;;;;13.32;54.63;100635.34;4944433;29;19919;-84
2021/03/13 10:08:59;;;;;;;;;;;;;;;13.61;53.36;100627.03;4945430;29;19915;-79
2021/03/13 10:11:44;;;;;;;;;;;;;;;13.88;53.20;100619.34;4942220;29;19915;-79
2021/03/13 10:14:29;;;;;;;;;;;;;;;13.81;53.08;100614.47;4940412;29;19915;-79
2021/03/13 10:17:13;;;;;;;;;;;;;;;13.97;52.74;100617.31;4941870;29;19918;-79
2021/03/13 10:20:09;;;;;;;;;;;;;;;14.14;52.48;100617.09;4923050;29;19915;-80
2021/03/13 10:22:55;;;;;;;;;;;;;;;14.06;52.97;100620.75;4920045;29;19915;-80
2021/03/13 10:25:41;;;;;;;;;;;;;;;14.06;52.94;100616.09;4923403;29;19919;-81
2021/03/13 10:28:30;;;;;;;;;;;;;;;14.13;53.29;100610.81;4922240;29;19926;-79
2021/03/13 10:31:22;;;;;;;;;;;;;;;14.29;52.74;100608.22;4925481;29;19919;-78
2021/03/13 10:34:13;;;;;;;;;;;;;;;13.91;53.21;100599.53;4919560;29;19915;-80
2021/03/13 10:36:59;;;;;;;;;;;;;;;14.05;53.02;100610.94;4921290;29;19915;-79
2021/03/13 10:39:48;;;;;;;;;;;;;;;14.42;52.11;100603.56;4919846;29;19915;-82
2021/03/13 10:42:35;;;;;;;;;;;;;;;14.67;51.13;100601.59;4921681;29;20378;-77
2021/03/13 10:45:20;;;;;;;;;;;;;;;15.01;49.76;100592.03;4922031;29;19919;-79
2021/03/13 10:48:06;;;;;;;;;;;;;;;15.08;49.96;100597.72;4921290;29;19915;-79
2021/03/13 10:50:51;;;;;;;;;;;;;;;15.14;49.35;100580.66;4927725;29;19914;-82
2021/03/13 10:53:37;;;;;;;;;;;;;;;14.91;50.45;100585.91;4940245;29;19919;-83
2021/03/13 10:56:22;;;;;;;;;;;;;;;15.56;48.82;100583.00;4939046;29;19922;-81
2021/03/13 10:59:07;;;;;;;;;;;;;;;15.40;48.86;100585.69;4941623;28;19919;-79
2021/03/13 11:01:54;;;;;;;;;;;;;;;15.62;48.78;100582.41;4937976;29;19914;-87
2021/03/13 11:04:46;;;;;;;;;;;;;;;15.92;48.38;100585.50;4949788;28;20303;-82
2021/03/13 11:07:33;;;;;;;;;;;;;;;15.46;49.42;100583.47;4945880;28;19914;-81
2021/03/13 11:10:18;;;;;;;;;;;;;;;15.22;50.44;100585.22;4941654;29;19915;-79
2021/03/13 11:13:03;;;;;;;;;;;;;;;16.17;47.88;100575.13;4937610;29;19918;-82
2021/03/13 11:15:47;;;;;;;;;;;;;;;16.33;47.05;100575.91;4934860;28;20374;-79
2021/03/13 11:18:33;;;;;;;;;;;;;;;16.62;46.48;100580.91;4939436;29;20297;-80
2021/03/13 11:21:17;;;;;;;;;;;;;;;16.49;46.90;100573.94;4949443;28;19914;-78
2021/03/13 11:24:03;;;;;;;;;;;;;;;23.08;32.88;100570.97;4943406;29;19918;-80
2021/03/13 11:26:49;;;;;;;;;;;;;;;27.12;26.26;100578.59;4938204;29;19914;-80
2021/03/13 11:29:33;;;;;;;;;;;;;;;27.40;24.43;100581.97;4939505;29;20274;-80
2021/03/13 11:32:17;;;;;;;;;;;;;;;24.45;29.02;100569.19;4940493;29;19914;-81
2021/03/13 11:35:06;;;;;;;;;;;;;;;24.04;29.02;100560.81;4921074;29;19915;-81
2021/03/13 11:37:52;;;;;;;;;;;;;;;23.98;29.96;100564.44;4919145;29;19922;-80
2021/03/13 11:40:37;;;;;;;;;;;;;;;26.87;24.76;100552.44;4934228;29;20389;-81
2021/03/13 11:43:22;;;;;;;;;;;;;;;27.37;25.08;100552.13;4947851;29;19915;-81
2021/03/13 11:46:06;;;;;;;;;;;;;;;24.31;27.93;100546.31;4959978;28;20385;-81
2021/03/13 11:48:52;;;;;;;;;;;;;;;27.35;23.97;100560.94;4958034;28;19914;-82
2021/03/13 11:51:37;;;;;;;;;;;;;;;23.28;30.11;100542.31;4961452;28;20411;-81
2021/03/13 11:54:23;;;;;;;;;;;;;;;24.91;28.32;100537.31;4945089;29;19914;-82
2021/03/13 11:57:07;;;;;;;;;;;;;;;26.39;25.04;100532.22;4957712;28;19914;-79
2021/03/13 11:59:52;;;;;;;;;;;;;;;21.51;33.30;100522.50;4946997;28;19915;-81
2021/03/13 12:02:38;;;;;;;;;;;;;;;22.50;31.50;100530.78;4948422;28;19918;-80
2021/03/13 12:05:23;;;;;;;;;;;;;;;27.60;23.82;100524.84;4947784;28;19918;-80
2021/03/13 12:08:10;;;;;;;;;;;;;;;22.30;32.17;100518.56;4950758;28;19922;-78
2021/03/13 12:10:55;;;;;;;;;;;;;;;20.95;34.87;100499.06;4933899;29;19914;-77
2021/03/13 12:13:39;;;;;;;;;;;;;;;19.76;36.97;100506.25;4942080;28;19914;-77
2021/03/13 12:16:25;;;;;;;;;;;;;;;19.51;37.73;100495.03;4943504;29;19914;-76
2021/03/13 12:19:09;;;;;;;;;;;;;;;19.42;38.28;100497.28;4948787;28;20607;-78
2021/03/13 12:21:54;;;;;;;;;;;;;;;18.92;39.47;100497.94;4946634;28;19915;-78
2021/03/13 12:24:41;;;;;;;;;;;;;;;19.33;38.50;100487.75;4944572;28;19918;-78
2021/03/13 12:27:26;;;;;;;;;;;;;;;19.63;38.23;100480.16;4932900;29;19933;-79
2021/03/13 12:30:11;;;;;;;;;;;;;;;19.72;38.02;100482.59;4945090;28;19915;-77
2021/03/13 12:32:56;;;;;;;;;;;;;;;20.67;36.39;100482.41;4943820;29;20172;-82
2021/03/13 12:35:41;;;;;;;;;;;;;;;25.08;27.84;100480.66;4959678;28;19914;-82
2021/03/13 12:38:25;;;;;;;;;;;;;;;27.02;24.83;100478.34;4954449;28;19935;-82
2021/03/13 12:41:11;;;;;;;;;;;;;;;28.85;21.84;100472.72;4955203;28;19914;-82
2021/03/13 12:43:56;;;;;;;;;;;;;;;27.85;23.12;100459.16;4942367;29;20484;-80
2021/03/13 12:46:41;;;;;;;;;;;;;;;26.27;25.01;100449.19;4962538;28;19915;-82
2021/03/13 12:49:26;;;;;;;;;;;;;;;22.66;29.69;100442.38;4951584;28;19915;-83
2021/03/13 12:52:11;;;;;;;;;;;;;;;25.28;26.99;100430.63;4954908;28;19915;-81
2021/03/13 12:54:57;;;;;;;;;;;;;;;24.67;27.30;100416.81;4954148;28;20293;-81
2021/03/13 12:57:43;;;;;;;;;;;;;;;28.63;22.35;100421.41;4954155;28;19918;-81
2021/03/13 13:00:27;;;;;;;;;;;;;;;29.27;20.84;100420.19;4958532;28;19914;-81
2021/03/13 13:03:12;;;;;;;;;;;;;;;29.06;20.63;100406.09;4954052;29;19922;-80
2021/03/13 13:05:56;;;;;;;;;;;;;;;28.89;20.88;100394.25;4946485;29;19922;-81
2021/03/13 13:08:42;;;;;;;;;;;;;;;29.72;19.41;100394.66;4952302;29;19918;-81
2021/03/13 13:11:26;;;;;;;;;;;;;;;31.01;18.41;100385.81;4945320;29;19927;-80
2021/03/13 13:14:12;;;;;;;;;;;;;;;31.20;18.20;100393.06;4936876;29;19914;-80
2021/03/13 13:16:56;;;;;;;;;;;;;;;28.71;21.06;100380.00;4936498;29;19914;-79
2021/03/13 13:19:41;;;;;;;;;;;;;;;28.92;20.44;100376.56;4925976;29;19915;-79
2021/03/13 13:22:25;;;;;;;;;;;;;;;28.66;21.59;100364.53;4937687;29;19928;-79
2021/03/13 13:25:11;;;;;;;;;;;;;;;29.13;19.08;100366.66;4936001;29;19931;-79
2021/03/13 13:27:56;;;;;;;;;;;;;;;27.91;19.77;100353.97;4939748;29;19915;-79
2021/03/13 13:30:41;;;;;;;;;;;;;;;27.04;21.29;100353.84;4938514;29;19914;-79
2021/03/13 13:33:26;;;;;;;;;;;;;;;25.72;23.94;100340.38;4935586;29;19915;-79
2021/03/13 13:36:11;;;;;;;;;;;;;;;24.32;25.96;100318.00;4939710;29;19914;-79
2021/03/13 13:38:59;;;;;;;;;;;;;;;23.29;26.72;100323.91;4937610;29;20409;-80
2021/03/13 13:41:43;;;;;;;;;;;;;;;22.25;27.55;100325.03;4936187;29;19914;-80
2021/03/13 13:44:28;;;;;;;;;;;;;;;21.16;29.65;100327.69;4939418;29;19918;-79
2021/03/13 13:47:13;;;;;;;;;;;;;;;21.00;30.97;100318.19;4923598;29;19915;-80
2021/03/13 13:49:57;;;;;;;;;;;;;;;21.09;29.98;100310.28;4935655;29;19915;-79
2021/03/13 13:52:43;;;;;;;;;;;;;;;20.82;29.72;100307.13;4939199;29;20297;-79
2021/03/13 13:55:28;;;;;;;;;;;;;;;21.16;28.95;100304.78;4937549;29;20298;-80
2021/03/13 13:58:12;;;;;;;;;;;;;;;21.21;28.95;100309.91;4935569;29;19919;-79
2021/03/13 14:00:57;;;;;;;;;;;;;;;21.28;28.58;100307.16;4956751;28;19914;-79
2021/03/13 14:03:41;;;;;;;;;;;;;;;21.33;28.84;100306.75;4937785;28;19915;-79
2021/03/13 14:06:26;;;;;;;;;;;;;;;21.32;29.55;100303.19;4944115;29;20311;-79
2021/03/13 14:09:11;;;;;;;;;;;;;;;21.96;29.12;100314.09;4942105;29;20385;-80
2021/03/13 14:11:56;;;;;;;;;;;;;;;21.61;29.89;100308.63;4940327;29;20285;-80
2021/03/13 14:14:42;;;;;;;;;;;;;;;21.08;31.39;100297.66;4943220;28;19914;-79
2021/03/13 14:17:27;;;;;;;;;;;;;;;20.59;31.43;100299.22;4938174;29;19915;-79
2021/03/13 14:20:12;;;;;;;;;;;;;;;20.13;32.74;100290.78;4949600;28;19919;-79
2021/03/13 14:22:56;;;;;;;;;;;;;;;20.38;32.12;100288.91;4946033;29;19914;-79
2021/03/13 14:25:40;;;;;;;;;;;;;;;20.43;32.39;100285.75;4952206;28;19926;-79